Time;durP1;ratioP1;P1;durP2;ratioP2;P2;SDS_P1;SDS_P2;PMS_P1;PMS_P2;Temp;Humidity;BMP_temperature;BMP_pressure;BME280_temperature;BME280_humidity;BME280_pressure;Samples;Min_cycle;Max_cycle;Signal;HPM_P1;HPM_P2
2021/12/15 00:00:41;;;;;;;65.97;37.03;;;;;;;7.58;100.00;102754.38;6160433;23;20016;-94
2021/12/15 00:03:35;;;;;;;69.47;37.83;;;;;;;7.50;100.00;102760.53;6159608;23;20345;-94
2021/12/15 00:06:22;;;;;;;67.97;37.78;;;;;;;7.27;100.00;102727.63;6139532;23;20372;-94
2021/12/15 00:09:02;;;;;;;74.57;40.58;;;;;;;7.31;100.00;102736.28;6136943;23;20395;-94
2021/12/15 00:11:46;;;;;;;72.97;37.53;;;;;;;7.23;100.00;102720.81;6160049;23;20033;-95
2021/12/15 00:14:29;;;;;;;69.47;37.40;;;;;;;7.29;100.00;102719.38;6159662;23;20440;-95
2021/12/15 00:17:16;;;;;;;74.85;38.85;;;;;;;7.26;100.00;102706.16;6158727;23;20076;-94
2021/12/15 00:19:59;;;;;;;70.60;38.42;;;;;;;7.23;100.00;102701.06;6156979;23;20427;-94
2021/12/15 00:23:09;;;;;;;75.38;40.40;;;;;;;7.24;100.00;102717.13;6159412;23;20067;-94
2021/12/15 00:26:12;;;;;;;72.15;37.58;;;;;;;7.36;100.00;102731.28;6184719;23;20080;-94
2021/12/15 00:29:05;;;;;;;76.47;39.22;;;;;;;7.24;100.00;102708.19;6184639;23;20463;-94
2021/12/15 00:31:42;;;;;;;;;;;;;;;7.64;100.00;102764.56;6159455;23;20379;-94
2021/12/15 00:34:17;;;;;;;73.63;39.38;;;;;;;7.26;100.00;102711.56;6135583;23;20275;-94
2021/12/15 00:36:52;;;;;;;72.53;39.38;;;;;;;7.25;100.00;102710.72;6159731;23;20404;-94
2021/12/15 00:39:36;;;;;;;;;;;;;;;;;;;;;
2021/12/15 00:42:13;;;;;;;70.32;36.70;;;;;;;7.24;100.00;102718.97;6176496;23;20451;-95
2021/12/15 00:45:06;;;;;;;72.40;38.70;;;;;;;7.29;100.00;102716.66;6159051;23;20005;-95
2021/12/15 00:47:49;;;;;;;;;;;;;;;7.62;100.00;102766.59;6184689;23;20008;-95
2021/12/15 00:50:38;;;;;;;66.30;36.80;;;;;;;7.29;100.00;102708.56;6220126;23;20363;-95
2021/12/15 00:53:21;;;;;;;64.85;36.95;;;;;;;7.30;100.00;102713.81;6220279;23;20326;-95
2021/12/15 00:56:22;;;;;;;71.53;37.55;;;;;;;7.64;100.00;102763.75;6197339;23;20008;-94
2021/12/15 00:59:06;;;;;;;63.17;36.33;;;;;;;7.29;100.00;102705.88;6215495;23;20333;-95
2021/12/15 01:01:56;;;;;;;66.60;35.97;;;;;;;7.27;100.00;102700.63;6214779;23;20011;-94
2021/12/15 01:04:56;;;;;;;66.40;36.72;;;;;;;7.30;100.00;102708.44;6192605;23;20395;-94
2021/12/15 01:08:03;;;;;;;66.07;37.40;;;;;;;7.65;100.00;102758.19;6191307;23;20384;-95
2021/12/15 01:19:53;;;;;;;69.45;36.38;;;;;;;7.69;100.00;102774.94;6217031;23;20063;-95
2021/12/15 01:23:18;;;;;;;;;;;;;;;;;;;;;
2021/12/15 01:29:35;;;;;;;63.03;35.97;;;;;;;7.52;100.00;102741.47;6211347;23;20016;-95
2021/12/15 01:35:40;;;;;;;67.35;35.45;;;;;;;7.44;100.00;102714.34;6216714;23;20335;-94
2021/12/15 01:38:48;;;;;;;65.53;36.67;;;;;;;7.36;100.00;102710.53;6215669;23;20008;-95
2021/12/15 01:41:34;;;;;;;66.05;35.78;;;;;;;7.34;100.00;102717.94;6215243;23;20335;-94
2021/12/15 01:47:03;;;;;;;67.32;37.20;;;;;;;7.39;100.00;102728.28;6227048;23;20455;-93
2021/12/15 01:49:34;;;;;;;;;;;;;;;7.77;100.00;102776.91;6215979;23;20032;-93
2021/12/15 01:52:35;;;;;;;63.10;36.53;;;;;;;7.76;100.00;102770.63;6215850;23;19904;-93
2021/12/15 01:55:31;;;;;;;65.45;36.60;;;;;;;7.76;100.00;102781.44;6192735;23;20008;-94
2021/12/15 01:58:23;;;;;;;68.70;36.95;;;;;;;7.63;100.00;102752.09;6219271;23;20351;-94
2021/12/15 02:01:06;;;;;;;68.32;36.00;;;;;;;7.42;100.00;102727.16;6200826;23;20444;-94
2021/12/15 02:04:18;;;;;;;70.30;36.60;;;;;;;7.60;100.00;102749.66;6221379;23;20004;-94
2021/12/15 02:07:08;;;;;;;63.05;35.95;;;;;;;7.68;100.00;102776.78;6221860;23;20066;-94
2021/12/15 02:12:47;;;;;;;70.05;36.47;;;;;;;7.66;100.00;102775.22;6235672;23;20015;-94
2021/12/15 02:15:30;;;;;;;68.35;36.55;;;;;;;7.44;100.00;102741.34;6221626;23;20004;-93
2021/12/15 02:18:15;;;;;;;66.47;35.22;;;;;;;7.44;100.00;102741.34;6222412;23;20097;-94
2021/12/15 02:20:55;;;;;;;65.53;35.25;;;;;;;7.47;100.00;102746.44;6200085;23;20436;-93
2021/12/15 02:23:37;;;;;;;70.25;36.90;;;;;;;7.49;100.00;102748.00;6225635;23;20367;-94
2021/12/15 02:26:12;;;;;;;70.00;37.03;;;;;;;7.48;100.00;102746.28;6231506;23;20030;-94
2021/12/15 02:28:50;;;;;;;69.07;35.60;;;;;;;7.70;100.00;102779.34;6241832;23;20004;-94
2021/12/15 02:34:33;;;;;;;66.30;35.58;;;;;;;7.50;100.00;102743.44;6248427;23;20099;-94
2021/12/15 02:40:16;;;;;;;64.18;34.22;;;;;;;7.49;100.00;102730.97;6248274;23;20308;-93
2021/12/15 02:43:03;;;;;;;65.05;34.90;;;;;;;7.52;100.00;102742.31;6220955;23;20004;-93
2021/12/15 02:45:41;;;;;;;63.13;33.97;;;;;;;7.48;100.00;102738.19;6220972;23;20007;-93
2021/12/15 02:48:42;;;;;;;;;;;;;;;;;;;;;
2021/12/15 02:51:33;;;;;;;62.28;34.42;;;;;;;7.51;100.00;102732.53;6221125;23;20079;-93
2021/12/15 02:54:18;;;;;;;65.55;35.25;;;;;;;7.49;100.00;102726.41;6219995;23;20011;-94
2021/12/15 02:57:12;;;;;;;62.80;33.92;;;;;;;7.53;100.00;102732.38;6198065;23;20047;-95
2021/12/15 03:00:15;;;;;;;;;;;;;;;;;;;;;
2021/12/15 03:06:10;;;;;;;62.25;33.92;;;;;;;7.74;100.00;102775.34;6247637;23;20510;-94
2021/12/15 03:09:10;;;;;;;65.55;34.00;;;;;;;7.75;100.00;102773.50;6219864;23;20016;-93
2021/12/15 03:19:13;;;;;;;;;;;;;;;;;;;;;
2021/12/15 03:22:32;;;;;;;;;;;;;;;;;;;;;
2021/12/15 03:34:59;;;;;;;;;;;;;;;;;;;;;
2021/12/15 03:41:43;;;;;;;63.53;32.75;;;;;;;7.77;100.00;102768.81;6226390;23;20012;-95
2021/12/15 03:48:18;;;;;;;62.90;31.95;;;;;;;7.90;100.00;102794.47;6248067;23;20063;-95
2021/12/15 03:51:35;;;;;;;61.65;32.30;;;;;;;7.61;100.00;102742.44;6220933;23;20036;-95
2021/12/15 03:54:36;;;;;;;58.88;31.92;;;;;;;7.69;100.00;102767.69;6221344;23;20031;-94
2021/12/15 03:57:15;;;;;;;59.70;32.22;;;;;;;7.54;100.00;102731.34;6220393;23;20012;-95
2021/12/15 04:00:00;;;;;;;59.72;31.90;;;;;;;7.62;100.00;102747.69;6220537;23;20036;-94
2021/12/15 04:02:34;;;;;;;57.20;30.63;;;;;;;7.57;100.00;102741.84;6221262;22;20011;-93
2021/12/15 04:05:17;;;;;;;58.95;31.02;;;;;;;7.81;100.00;102787.28;6221406;23;20312;-94
2021/12/15 04:08:00;;;;;;;55.83;31.10;;;;;;;7.81;100.00;102787.28;6220599;23;20004;-94
2021/12/15 04:10:36;;;;;;;53.83;29.20;;;;;;;7.69;100.00;102773.09;6220460;23;20008;-94
2021/12/15 04:13:22;;;;;;;56.47;31.20;;;;;;;7.61;100.00;102753.22;6219710;23;20039;-94
2021/12/15 04:16:06;;;;;;;55.53;29.60;;;;;;;7.59;100.00;102741.69;6219619;23;20004;-94
2021/12/15 04:18:46;;;;;;;53.38;29.75;;;;;;;7.66;100.00;102759.03;6220001;23;20423;-95
2021/12/15 04:21:42;;;;;;;;;;;;;;;;;;;;;
2021/12/15 04:24:26;;;;;;;52.13;28.92;;;;;;;7.73;100.00;102769.06;6239634;23;20063;-94
2021/12/15 04:30:12;;;;;;;;;;;;;;;;;;;;;
2021/12/15 04:32:52;;;;;;;53.55;29.35;;;;;;;7.64;100.00;102764.56;6217378;23;20052;-95
2021/12/15 04:35:44;;;;;;;53.15;30.17;;;;;;;7.66;100.00;102765.31;6219839;23;20352;-93
2021/12/15 04:38:19;;;;;;;52.85;29.85;;;;;;;7.63;100.00;102768.31;6220713;23;20338;-94
2021/12/15 04:41:02;;;;;;;53.58;29.60;;;;;;;7.66;100.00;102770.69;6219767;23;20007;-93
2021/12/15 04:43:48;;;;;;;50.95;28.08;;;;;;;7.67;100.00;102771.53;6218400;23;20004;-94
2021/12/15 04:46:32;;;;;;;54.33;29.80;;;;;;;7.69;100.00;102777.63;6219762;23;20083;-94
2021/12/15 04:49:19;;;;;;;50.75;28.92;;;;;;;7.67;100.00;102763.44;6220452;23;20083;-94
2021/12/15 04:55:13;;;;;;;46.38;26.60;;;;;;;8.02;100.00;102826.72;6223821;23;20012;-94
2021/12/15 04:57:57;;;;;;;51.28;28.00;;;;;;;7.68;100.00;102771.38;6220100;23;20352;-94
2021/12/15 05:00:40;;;;;;;50.33;27.58;;;;;;;8.01;100.00;102828.56;6220588;23;20028;-94
2021/12/15 05:03:17;;;;;;;50.60;28.65;;;;;;;7.62;100.00;102774.69;6220326;23;20008;-93
2021/12/15 05:05:53;;;;;;;54.17;28.00;;;;;;;7.65;100.00;102781.66;6219872;23;20331;-93
2021/12/15 05:08:34;;;;;;;49.85;27.70;;;;;;;7.65;100.00;102785.19;6220021;23;20039;-93
2021/12/15 05:11:14;;;;;;;47.97;28.40;;;;;;;7.62;100.00;102777.41;6220329;23;20015;-93
2021/12/15 05:13:56;;;;;;;50.95;28.08;;;;;;;7.85;100.00;102812.13;6219898;23;20431;-93
2021/12/15 05:16:40;;;;;;;51.15;28.38;;;;;;;7.75;100.00;102795.09;6196403;23;20008;-94
2021/12/15 05:19:37;;;;;;;46.28;26.73;;;;;;;8.02;100.00;102840.25;6218533;23;20012;-94
2021/12/15 05:22:15;;;;;;;45.55;27.08;;;;;;;7.59;100.00;102782.22;6221362;23;20328;-94
2021/12/15 05:25:14;;;;;;;;;;;;;;;;;;;;;
2021/12/15 05:31:40;;;;;;;;;;;;;;;;;;;;;
2021/12/15 05:34:40;;;;;;;46.85;27.05;;;;;;;7.67;100.00;102795.84;6241057;23;20092;-95
2021/12/15 05:37:33;;;;;;;50.60;27.33;;;;;;;7.65;100.00;102798.72;6211034;23;20012;-94
2021/12/15 05:40:11;;;;;;;52.25;27.75;;;;;;;7.60;100.00;102787.47;6207540;23;20087;-93
2021/12/15 05:43:10;;;;;;;48.40;27.20;;;;;;;7.97;100.00;102851.50;6221688;23;20342;-94
2021/12/15 05:45:44;;;;;;;50.53;27.13;;;;;;;7.62;100.00;102798.13;6222254;23;20377;-94
2021/12/15 05:48:16;;;;;;;49.05;28.00;;;;;;;7.59;100.00;102796.59;6222536;23;20083;-94
2021/12/15 05:50:44;;;;;;;51.63;28.35;;;;;;;7.59;100.00;102790.34;6221902;23;20004;-93
2021/12/15 05:53:12;;;;;;;50.85;27.90;;;;;;;7.77;100.00;102818.28;6221549;23;20004;-94
2021/12/15 05:55:51;;;;;;;50.78;27.75;;;;;;;7.62;100.00;102793.59;6221430;23;20007;-94
2021/12/15 05:58:17;;;;;;;50.35;28.58;;;;;;;7.61;100.00;102797.28;6221452;23;20095;-95
2021/12/15 06:00:45;;;;;;;54.80;29.83;;;;;;;7.72;100.00;102810.63;6197434;23;20008;-94
2021/12/15 06:03:17;;;;;;;54.92;29.38;;;;;;;7.67;100.00;102807.50;6197134;23;20008;-94
2021/12/15 06:06:22;;;;;;;59.60;29.48;;;;;;;7.57;100.00;102801.28;6222442;23;20000;-94
2021/12/15 06:09:14;;;;;;;55.67;29.65;;;;;;;7.82;100.00;102836.75;6218659;23;20008;-94
2021/12/15 06:11:55;;;;;;;55.83;28.88;;;;;;;7.66;100.00;102805.81;6222197;23;20011;-94
2021/12/15 06:15:04;;;;;;;57.13;29.25;;;;;;;7.60;100.00;102795.59;6222535;23;20427;-94
2021/12/15 06:17:40;;;;;;;60.35;29.90;;;;;;;7.99;100.00;102864.88;6215576;23;20061;-89
2021/12/15 06:20:30;;;;;;;58.33;29.40;;;;;;;7.96;100.00;102855.19;6133773;23;20068;-95
2021/12/15 06:23:05;;;;;;;56.05;29.55;;;;;;;7.77;100.00;102829.09;6131653;23;20008;-94
2021/12/15 06:28:35;;;;;;;56.80;29.85;;;;;;;7.59;100.00;102802.00;6074572;23;20013;-94
2021/12/15 06:31:03;;;;;;;59.20;30.17;;;;;;;7.57;100.00;102801.28;6129919;23;20016;-90
2021/12/15 06:33:29;;;;;;;56.95;30.92;;;;;;;7.77;100.00;102828.25;6153853;23;20024;-90
2021/12/15 06:35:58;;;;;;;60.70;30.45;;;;;;;7.73;100.00;102827.69;6128938;23;20018;-90
2021/12/15 06:38:33;;;;;;;57.75;30.13;;;;;;;7.79;100.00;102816.28;6153728;23;20032;-90
2021/12/15 06:41:00;;;;;;;56.40;29.15;;;;;;;7.77;100.00;102825.56;6128884;23;20064;-89
2021/12/15 06:43:26;;;;;;;55.75;29.70;;;;;;;8.08;100.00;102869.38;6128835;23;20093;-87
2021/12/15 06:46:51;;;;;;;61.28;32.10;;;;;;;8.14;100.00;102879.59;6080578;23;20005;-96
2021/12/15 07:00:40;;;;;;;54.45;30.02;;;;;;;7.90;100.00;102858.50;6257790;23;20390;-92
2021/12/15 18:06:59;;;;;;;48.67;36.38;;;;;;;8.77;100.00;103106.19;6246533;23;20062;-91
2021/12/15 18:09:38;;;;;;;53.10;35.97;;;;;;;8.88;100.00;103128.66;6195925;23;20052;-94
2021/12/15 22:11:20;;;;;;;68.80;43.65;;;;;;;8.05;100.00;103202.22;6252899;22;20485;-93
2021/12/15 22:13:53;;;;;;;64.05;41.97;;;;;;;7.84;100.00;103176.16;6222546;23;20342;-94
2021/12/15 22:16:27;;;;;;;71.40;43.58;;;;;;;7.81;100.00;103165.63;6252379;22;20004;-93
2021/12/15 22:19:16;;;;;;;66.35;42.63;;;;;;;8.16;100.00;103231.81;6252236;22;20014;-93
2021/12/15 22:21:52;;;;;;;67.22;41.85;;;;;;;7.80;100.00;103172.03;6253049;22;20307;-94
2021/12/15 22:24:33;;;;;;;66.72;42.70;;;;;;;7.80;100.00;103172.03;6252528;22;20431;-94
2021/12/15 22:27:07;;;;;;;67.55;41.38;;;;;;;7.99;100.00;103208.19;6252858;22;20006;-94
2021/12/15 22:29:48;;;;;;;65.50;42.65;;;;;;;7.75;100.00;103174.31;6252260;22;20389;-93
2021/12/15 22:32:26;;;;;;;66.82;43.38;;;;;;;8.12;100.00;103233.13;6252637;22;20361;-94
2021/12/15 22:34:58;;;;;;;69.43;43.10;;;;;;;7.98;100.00;103217.28;6252676;22;20327;-94
2021/12/15 22:37:29;;;;;;;70.82;44.47;;;;;;;7.75;100.00;103179.72;6251987;22;20007;-94
2021/12/15 22:39:58;;;;;;;67.33;42.70;;;;;;;7.93;100.00;103201.50;6252282;22;20101;-94
2021/12/15 22:42:33;;;;;;;67.10;42.70;;;;;;;7.76;100.00;103176.00;6252228;22;20011;-94
2021/12/15 22:45:05;;;;;;;66.32;42.88;;;;;;;7.70;100.00;103174.69;6252125;22;20326;-94
2021/12/15 22:47:38;;;;;;;64.15;42.35;;;;;;;8.05;100.00;103234.66;6252884;22;20011;-94
2021/12/15 22:50:11;;;;;;;68.75;42.53;;;;;;;7.73;100.00;103187.94;6252060;22;20014;-93
2021/12/15 22:52:46;;;;;;;69.43;43.05;;;;;;;7.69;100.00;103188.34;6227313;22;20403;-94
2021/12/15 22:55:17;;;;;;;72.20;44.42;;;;;;;7.72;100.00;103198.88;6227710;22;20007;-94
2021/12/15 22:57:56;;;;;;;67.50;42.25;;;;;;;8.07;100.00;103252.47;6251738;22;20003;-94
2021/12/15 23:00:31;;;;;;;65.32;42.42;;;;;;;7.96;100.00;103227.38;6227708;22;20042;-93
2021/12/15 23:03:00;;;;;;;63.40;41.22;;;;;;;7.80;100.00;103212.56;6251878;22;20034;-93
2021/12/15 23:05:54;;;;;;;;;;;;;;;;;;;;;
2021/12/15 23:08:55;;;;;;;63.10;42.15;;;;;;;7.71;100.00;103184.53;6270912;22;20083;-94
2021/12/15 23:14:55;;;;;;;71.25;43.10;;;;;;;8.01;100.00;103242.19;6278939;22;20102;-95
2021/12/15 23:17:59;;;;;;;69.50;42.35;;;;;;;7.92;100.00;103226.81;6212062;23;20004;-93
2021/12/15 23:20:45;;;;;;;;;;;;;;;;;;;;;
2021/12/15 23:23:26;;;;;;;66.82;42.35;;;;;;;7.62;100.00;103185.38;6242734;23;20378;-94
2021/12/15 23:26:12;;;;;;;64.07;41.45;;;;;;;7.97;100.00;103246.19;6221178;23;20309;-94
2021/12/15 23:28:52;;;;;;;66.07;41.85;;;;;;;7.59;100.00;103192.88;6221539;23;20031;-94
2021/12/15 23:31:37;;;;;;;67.72;42.85;;;;;;;7.82;100.00;103243.00;6220734;23;20004;-94
2021/12/15 23:34:19;;;;;;;66.18;41.58;;;;;;;7.75;100.00;103241.00;6196377;23;20339;-94
2021/12/15 23:37:11;;;;;;;68.85;42.83;;;;;;;7.57;100.00;103202.97;6220906;23;20086;-94
2021/12/15 23:40:24;;;;;;;68.75;42.97;;;;;;;7.84;100.00;103246.44;6221096;23;20087;-94
2021/12/15 23:54:48;;;;;;;66.23;42.00;;;;;;;7.87;100.00;103240.75;6226632;23;20019;-94
